Terminal Aerodrome Forecast
Issued by NWS Duluth, MN

Home | Current Version | Previous Version | Text Only | Print | Product List | Glossary On
Versions: 1 2 3 4 5 6 7 8 9 10 11 12 13 14 15 16 17 18 19 20 21 22 23 24
000
FTUS43 KDLH 300100 AAA
TAFINL
TAF AMD
KINL 300119Z 3001/3024 35010KT P6SM BKN035
      TEMPO 3003/3005 BKN027
     FM300500 36008KT P6SM SCT035
     FM301400 36012KT P6SM SKC
     FM302200 02006KT P6SM SKC=

USA.gov is the U.S. government's official web portal to all federal, state and local government web resources and services.